createdAt,value
2023-05-22T00:00:01.325Z,15.52
2023-05-22T00:02:29.835Z,15.18
2023-05-22T00:05:00.830Z,15.88
2023-05-22T00:07:29.225Z,15.35
2023-05-22T00:09:57.500Z,15.32
2023-05-22T00:12:25.888Z,15.23
2023-05-22T00:14:54.298Z,15.23
2023-05-22T00:17:22.746Z,15.30
2023-05-22T00:19:51.491Z,14.70
2023-05-22T00:22:21.527Z,16.23
2023-05-22T00:24:49.905Z,15.05
2023-05-22T00:27:18.248Z,14.73
2023-05-22T00:29:47.234Z,14.27
2023-05-22T00:32:15.512Z,15.75
2023-05-22T00:34:43.961Z,14.30
2023-05-22T00:37:12.294Z,14.95
2023-05-22T00:39:41.930Z,15.30
2023-05-22T00:42:10.241Z,15.43
2023-05-22T00:44:38.868Z,14.70
2023-05-22T00:47:08.119Z,15.32
2023-05-22T00:49:36.768Z,15.10
2023-05-22T00:52:05.685Z,13.70
2023-05-22T00:54:34.448Z,14.35
2023-05-22T00:57:05.221Z,15.07
2023-05-22T00:59:34.472Z,14.55
2023-05-22T01:02:03.026Z,14.95
2023-05-22T01:04:33.104Z,14.32
2023-05-22T01:07:02.927Z,14.70
2023-05-22T01:09:31.790Z,15.20
2023-05-22T01:12:11.307Z,14.40
2023-05-22T01:14:50.076Z,14.85
2023-05-22T01:17:25.312Z,15.27
2023-05-22T01:20:10.067Z,14.50
2023-05-22T01:23:29.650Z,14.90
2023-05-22T01:26:40.132Z,16.30
2023-05-22T01:29:32.362Z,16.27
2023-05-22T01:32:03.589Z,16.27
2023-05-22T01:34:32.911Z,15.73
2023-05-22T01:37:03.240Z,17.75
2023-05-22T01:39:32.851Z,18.30
2023-05-22T01:42:02.302Z,18.00
2023-05-22T01:44:30.739Z,18.77
2023-05-22T01:47:00.602Z,18.70
2023-05-22T01:49:30.433Z,18.75
2023-05-22T01:52:09.953Z,18.33
2023-05-22T01:54:43.916Z,18.08
2023-05-22T01:57:17.735Z,19.52
2023-05-22T01:59:50.709Z,19.45
2023-05-22T02:02:21.461Z,18.85
2023-05-22T02:05:04.672Z,18.95
2023-05-22T02:07:35.395Z,19.20
2023-05-22T02:10:07.386Z,19.00
2023-05-22T02:12:38.913Z,18.67
2023-05-22T02:15:09.558Z,18.50
2023-05-22T02:20:15.806Z,18.30
2023-05-22T02:22:48.616Z,19.63
2023-05-22T02:25:18.006Z,19.80
2023-05-22T02:27:49.588Z,19.70
2023-05-22T02:30:18.112Z,20.95
2023-05-22T02:32:50.308Z,19.73
2023-05-22T02:35:20.059Z,20.63
2023-05-22T02:37:48.334Z,20.77
2023-05-22T02:40:16.726Z,20.90
2023-05-22T02:42:45.076Z,20.48
2023-05-22T02:45:13.904Z,21.30
2023-05-22T02:47:43.184Z,22.25
2023-05-22T02:50:12.228Z,23.13
2023-05-22T02:52:42.551Z,22.02
2023-05-22T02:55:11.559Z,22.42
2023-05-22T02:57:39.890Z,23.80
2023-05-22T03:00:11.762Z,23.45
2023-05-22T03:02:40.230Z,24.45
2023-05-22T03:05:11.043Z,22.75
2023-05-22T03:07:40.121Z,22.35
2023-05-22T03:10:10.674Z,23.52
2023-05-22T03:12:39.067Z,24.02
2023-05-22T03:15:08.865Z,24.30
2023-05-22T03:17:37.949Z,22.55
2023-05-22T03:20:08.739Z,22.70
2023-05-22T03:22:37.318Z,23.05
2023-05-22T03:25:09.426Z,23.50
2023-05-22T03:27:40.632Z,21.77
2023-05-22T03:30:10.617Z,22.30
2023-05-22T03:32:41.131Z,22.23
2023-05-22T03:35:10.841Z,22.65
2023-05-22T03:37:39.483Z,23.90
2023-05-22T03:40:10.210Z,23.63
2023-05-22T03:42:40.079Z,22.85
2023-05-22T03:45:10.029Z,21.23
2023-05-22T03:50:08.554Z,20.92
2023-05-22T03:52:36.981Z,20.45
2023-05-22T03:55:07.237Z,20.92
2023-05-22T03:57:35.599Z,20.15
2023-05-22T04:00:09.817Z,19.75
2023-05-22T04:02:45.325Z,20.48
2023-05-22T04:05:14.510Z,19.10
2023-05-22T04:07:42.976Z,19.08
2023-05-22T04:10:12.573Z,18.73
2023-05-22T04:12:40.980Z,18.45
2023-05-22T04:15:11.405Z,18.92
2023-05-22T04:17:42.177Z,18.25
2023-05-22T04:20:12.156Z,20.35
2023-05-22T04:22:41.242Z,19.92
2023-05-22T04:25:11.462Z,19.80
2023-05-22T04:27:40.199Z,18.65
2023-05-22T04:30:11.393Z,18.02
2023-05-22T04:32:40.902Z,18.67
2023-05-22T04:35:10.085Z,17.05
2023-05-22T04:37:42.324Z,19.35
2023-05-22T04:42:40.440Z,18.45
2023-05-22T04:45:13.960Z,18.70
2023-05-22T04:47:42.633Z,18.73
2023-05-22T04:50:12.012Z,19.33
2023-05-22T04:52:40.360Z,20.10
2023-05-22T04:55:12.046Z,21.17
2023-05-22T04:57:41.293Z,22.35
2023-05-22T05:00:14.026Z,25.17
2023-05-22T05:02:43.473Z,25.52
2023-05-22T05:05:12.407Z,26.52
2023-05-22T05:07:41.992Z,25.63
2023-05-22T05:10:11.523Z,27.58
2023-05-22T05:12:39.861Z,27.92
2023-05-22T05:15:11.220Z,26.13
2023-05-22T05:17:39.572Z,26.52
2023-05-22T05:20:10.651Z,26.67
2023-05-22T05:22:39.832Z,27.98
2023-05-22T05:25:11.463Z,29.17
2023-05-22T05:27:40.806Z,26.80
2023-05-22T05:30:12.554Z,29.77
2023-05-22T05:32:57.689Z,26.92
2023-05-22T05:35:33.687Z,28.48
2023-05-22T05:38:09.888Z,29.00
2023-05-22T05:40:41.892Z,27.40
2023-05-22T05:43:11.456Z,28.25
2023-05-22T05:45:41.895Z,26.20
2023-05-22T05:48:12.045Z,28.88
2023-05-22T05:50:44.147Z,27.65
2023-05-22T05:53:12.572Z,28.45
2023-05-22T05:55:43.865Z,28.30
2023-05-22T05:58:12.649Z,27.52
2023-05-22T06:01:02.799Z,27.00
2023-05-22T06:03:31.474Z,26.85
2023-05-22T06:06:15.379Z,28.38
2023-05-22T06:09:10.340Z,25.05
2023-05-22T06:11:57.096Z,25.58
2023-05-22T06:14:26.104Z,25.40
2023-05-22T06:16:56.174Z,26.30
2023-05-22T06:19:24.637Z,25.20
2023-05-22T06:21:53.025Z,25.85
2023-05-22T06:24:22.447Z,26.38
2023-05-22T06:26:51.658Z,24.50
2023-05-22T06:29:20.108Z,24.83
2023-05-22T06:31:49.384Z,24.08
2023-05-22T06:34:22.792Z,24.42
2023-05-22T06:36:52.370Z,23.10
2023-05-22T06:39:24.816Z,22.42
2023-05-22T06:42:09.287Z,23.40
2023-05-22T06:45:11.086Z,23.20
2023-05-22T06:47:56.945Z,21.60
2023-05-22T06:50:35.969Z,23.77
2023-05-22T06:53:04.292Z,22.73
2023-05-22T06:55:32.957Z,24.95
2023-05-22T06:58:11.339Z,25.45
2023-05-22T07:00:40.881Z,23.75
2023-05-22T07:03:19.848Z,24.02
2023-05-22T07:06:19.177Z,24.40
2023-05-22T07:08:47.539Z,23.83
2023-05-22T07:11:15.860Z,23.50
2023-05-22T07:13:44.274Z,23.88
2023-05-22T07:16:12.563Z,24.52
2023-05-22T07:18:41.906Z,24.15
2023-05-22T07:21:10.242Z,25.63
2023-05-22T07:23:39.947Z,23.17
2023-05-22T07:26:09.741Z,23.17
2023-05-22T07:28:43.360Z,22.85
2023-05-22T07:31:15.826Z,21.65
2023-05-22T07:33:46.423Z,22.60
2023-05-22T07:36:15.550Z,22.88
2023-05-22T07:38:45.437Z,22.75
2023-05-22T07:41:14.067Z,22.33
2023-05-22T07:43:42.459Z,21.83
2023-05-22T07:48:51.985Z,20.73
2023-05-22T07:51:20.600Z,20.75
2023-05-22T07:53:53.463Z,20.23
2023-05-22T07:56:22.114Z,19.60
2023-05-22T07:58:52.037Z,20.05
2023-05-22T08:01:22.249Z,19.85
2023-05-22T08:03:50.748Z,24.23
2023-05-22T08:06:19.222Z,23.80
2023-05-22T08:08:47.550Z,21.98
2023-05-22T08:11:17.245Z,21.55
2023-05-22T08:13:45.595Z,21.27
2023-05-22T08:16:13.947Z,21.00
2023-05-22T08:18:42.248Z,20.48
2023-05-22T08:21:10.512Z,22.13
2023-05-22T08:23:39.987Z,21.20
2023-05-22T08:26:09.724Z,20.38
2023-05-22T08:28:42.075Z,21.00
2023-05-22T08:31:10.463Z,20.42
2023-05-22T08:33:38.803Z,20.20
2023-05-22T08:36:07.909Z,20.10
2023-05-22T08:38:36.474Z,19.02
2023-05-22T08:41:06.806Z,19.98
2023-05-22T08:43:35.246Z,20.52
2023-05-22T08:46:08.742Z,20.45
2023-05-22T08:48:38.539Z,20.83
2023-05-22T08:51:09.017Z,20.10
2023-05-22T08:53:38.440Z,19.77
2023-05-22T08:56:08.702Z,19.15
2023-05-22T08:58:38.609Z,21.88
2023-05-22T09:01:09.389Z,20.50
2023-05-22T09:03:38.573Z,19.17
2023-05-22T09:06:11.062Z,19.42
2023-05-22T09:08:39.982Z,21.38
2023-05-22T09:11:08.355Z,19.83
2023-05-22T09:13:36.620Z,20.95
2023-05-22T09:16:13.477Z,19.63
2023-05-22T09:18:43.133Z,19.10
2023-05-22T09:21:25.721Z,19.13
2023-05-22T09:24:01.608Z,19.02
2023-05-22T09:26:30.499Z,19.30
2023-05-22T09:29:01.209Z,19.67
2023-05-22T09:31:31.708Z,18.98
2023-05-22T09:36:35.081Z,18.83
2023-05-22T09:39:05.042Z,18.23
2023-05-22T09:41:40.254Z,17.90
2023-05-22T09:44:16.130Z,17.05
2023-05-22T09:46:48.021Z,16.40
2023-05-22T09:49:17.703Z,16.63
2023-05-22T09:51:48.818Z,18.88
2023-05-22T09:54:21.699Z,19.17
2023-05-22T09:56:51.730Z,18.48
2023-05-22T09:59:23.477Z,19.42
2023-05-22T10:01:54.699Z,18.35
2023-05-22T10:04:24.780Z,19.42
2023-05-22T10:06:55.315Z,17.92
2023-05-22T10:09:30.691Z,18.35
2023-05-22T10:12:05.176Z,18.98
2023-05-22T10:14:34.359Z,19.40
2023-05-22T10:17:06.678Z,19.55
2023-05-22T10:19:39.645Z,18.38
2023-05-22T10:22:10.435Z,18.77
2023-05-22T10:24:41.157Z,19.17
2023-05-22T10:27:09.449Z,18.90
2023-05-22T10:29:46.178Z,18.30
2023-05-22T10:32:26.132Z,19.88
2023-05-22T10:35:08.474Z,19.65
2023-05-22T10:37:49.453Z,17.85
2023-05-22T10:40:28.947Z,18.67
2023-05-22T10:43:01.602Z,18.63
2023-05-22T10:45:31.574Z,18.08
2023-05-22T10:48:09.405Z,17.00
2023-05-22T10:50:38.470Z,18.05
2023-05-22T10:53:25.586Z,18.75
2023-05-22T10:55:55.343Z,18.88
2023-05-22T10:58:29.463Z,17.73
2023-05-22T11:01:13.755Z,18.67
2023-05-22T11:03:55.760Z,17.20
2023-05-22T11:06:38.618Z,18.33
2023-05-22T11:09:32.415Z,18.13
2023-05-22T11:12:21.494Z,16.80
2023-05-22T11:14:52.635Z,17.95
2023-05-22T11:17:24.304Z,18.98
2023-05-22T11:20:02.890Z,17.85
2023-05-22T11:22:36.953Z,18.08
2023-05-22T11:25:09.402Z,18.50
2023-05-22T11:27:39.202Z,17.70
2023-05-22T11:30:10.041Z,18.40
2023-05-22T11:32:39.691Z,19.95
2023-05-22T11:35:10.292Z,19.10
2023-05-22T11:37:42.330Z,19.15
2023-05-22T11:40:12.086Z,18.08
2023-05-22T11:42:40.444Z,18.47
2023-05-22T11:45:10.093Z,19.50
2023-05-22T11:47:39.009Z,19.27
2023-05-22T11:50:15.044Z,20.33
2023-05-22T11:52:46.918Z,20.95
2023-05-22T11:55:15.258Z,20.25
2023-05-22T11:57:44.277Z,22.55
2023-05-22T12:00:14.140Z,21.70
2023-05-22T12:02:47.505Z,22.33
2023-05-22T12:05:17.701Z,21.23
2023-05-22T12:07:46.225Z,21.23
2023-05-22T12:10:15.868Z,21.73
2023-05-22T12:12:45.290Z,21.07
2023-05-22T12:15:14.821Z,20.02
2023-05-22T12:17:44.639Z,20.55
2023-05-22T12:20:16.203Z,20.95
2023-05-22T12:22:45.191Z,20.08
2023-05-22T12:25:17.908Z,19.88
2023-05-22T12:27:46.884Z,20.73
2023-05-22T12:30:16.696Z,22.85
2023-05-22T12:32:49.952Z,22.45
2023-05-22T12:35:20.224Z,21.70
2023-05-22T12:37:52.745Z,22.48
2023-05-22T12:40:21.168Z,23.67
2023-05-22T12:42:50.558Z,21.30
2023-05-22T12:45:19.159Z,20.20
2023-05-22T12:47:47.687Z,21.63
2023-05-22T12:50:16.320Z,20.10
2023-05-22T12:52:46.101Z,18.13
2023-05-22T12:55:14.441Z,19.40
2023-05-22T12:57:42.792Z,18.98
2023-05-22T13:00:12.734Z,17.92
2023-05-22T13:02:41.215Z,16.77
2023-05-22T13:05:10.002Z,15.82
2023-05-22T13:07:38.826Z,15.25
2023-05-22T13:10:09.879Z,14.50
2023-05-22T13:12:38.174Z,13.95
2023-05-22T13:15:07.940Z,15.05
2023-05-22T13:17:36.397Z,16.33
2023-05-22T13:20:05.079Z,14.82
2023-05-22T13:22:33.440Z,15.40
2023-05-22T13:25:01.778Z,15.18
2023-05-22T13:27:33.524Z,14.50
2023-05-22T13:30:02.367Z,15.45
2023-05-22T13:32:30.874Z,13.70
2023-05-22T13:34:59.246Z,14.02
2023-05-22T13:37:27.533Z,13.32
2023-05-22T13:39:55.917Z,13.07
2023-05-22T13:42:24.436Z,11.60
2023-05-22T13:44:54.132Z,11.07
2023-05-22T13:47:23.218Z,11.60
2023-05-22T13:49:51.668Z,11.40
2023-05-22T13:52:20.072Z,11.07
2023-05-22T13:54:48.425Z,11.10
2023-05-22T13:57:16.774Z,9.82
2023-05-22T13:59:45.550Z,10.75
2023-05-22T14:02:15.210Z,10.93
2023-05-22T14:04:43.556Z,10.93
2023-05-22T14:07:11.868Z,10.55
2023-05-22T14:09:40.153Z,9.48
2023-05-22T14:12:09.205Z,10.68
2023-05-22T14:14:37.495Z,10.30
2023-05-22T14:17:08.933Z,10.80
2023-05-22T14:19:40.138Z,10.57
2023-05-22T14:22:08.564Z,10.98
2023-05-22T14:24:36.873Z,10.32
2023-05-22T14:27:05.729Z,10.43
2023-05-22T14:29:34.022Z,10.85
2023-05-22T14:32:04.932Z,10.20
2023-05-22T14:34:33.350Z,10.57
2023-05-22T14:37:03.500Z,9.90
2023-05-22T14:39:31.877Z,10.32
2023-05-22T14:42:00.240Z,10.27
2023-05-22T14:44:28.594Z,10.55
2023-05-22T14:46:57.079Z,9.02
2023-05-22T14:49:25.420Z,10.27
2023-05-22T14:51:54.608Z,10.80
2023-05-22T14:54:24.288Z,10.32
2023-05-22T14:56:52.618Z,10.10
2023-05-22T14:59:21.374Z,9.73
2023-05-22T15:01:50.461Z,9.68
2023-05-22T15:04:19.124Z,9.25
2023-05-22T15:06:47.504Z,9.52
2023-05-22T15:09:16.316Z,8.80
2023-05-22T15:11:49.092Z,8.35
2023-05-22T15:14:17.837Z,8.23
2023-05-22T15:16:47.126Z,9.10
2023-05-22T15:19:15.988Z,8.27
2023-05-22T15:21:44.273Z,9.32
2023-05-22T15:24:13.057Z,9.02
2023-05-22T15:26:41.463Z,9.38
2023-05-22T15:29:12.119Z,9.30
2023-05-22T15:31:40.867Z,9.43
2023-05-22T15:34:09.184Z,9.38
2023-05-22T15:36:37.906Z,9.23
2023-05-22T15:39:06.532Z,9.05
2023-05-22T15:41:34.778Z,8.50
2023-05-22T15:44:03.077Z,8.40
2023-05-22T15:46:32.789Z,8.13
2023-05-22T15:49:01.238Z,8.40
2023-05-22T15:51:30.966Z,7.93
2023-05-22T15:53:59.336Z,8.43
2023-05-22T15:56:27.678Z,7.70
2023-05-22T15:58:56.102Z,8.32
2023-05-22T16:01:24.434Z,8.88
2023-05-22T16:03:54.244Z,7.65
2023-05-22T16:06:23.314Z,7.90
2023-05-22T16:08:51.668Z,7.75
2023-05-22T16:11:20.059Z,8.52
2023-05-22T16:13:48.541Z,8.27
2023-05-22T16:16:17.448Z,8.57
2023-05-22T16:18:45.887Z,8.10
2023-05-22T16:21:15.750Z,8.48
2023-05-22T16:23:44.109Z,8.75
2023-05-22T16:26:12.433Z,9.05
2023-05-22T16:28:40.775Z,8.20
2023-05-22T16:31:09.194Z,9.02
2023-05-22T16:33:37.714Z,9.30
2023-05-22T16:36:06.805Z,9.60
2023-05-22T16:38:36.482Z,9.85
2023-05-22T16:41:04.815Z,8.97
2023-05-22T16:43:33.088Z,9.45
2023-05-22T16:46:01.443Z,10.30
2023-05-22T16:48:29.772Z,10.30
2023-05-22T16:50:58.142Z,10.20
2023-05-22T16:53:26.536Z,10.43
2023-05-22T16:55:56.223Z,10.77
2023-05-22T16:58:24.505Z,10.27
2023-05-22T17:00:53.833Z,9.95
2023-05-22T17:03:22.260Z,10.50
2023-05-22T17:05:51.354Z,10.95
2023-05-22T17:08:21.701Z,11.07
2023-05-22T17:10:50.024Z,11.73
2023-05-22T17:13:21.419Z,11.23
2023-05-22T17:15:50.033Z,10.77
2023-05-22T17:18:19.957Z,10.45
2023-05-22T17:20:49.325Z,11.60
2023-05-22T17:23:18.378Z,10.82
2023-05-22T17:25:47.633Z,10.77
2023-05-22T17:28:16.580Z,10.88
2023-05-22T17:30:47.186Z,10.38
2023-05-22T17:35:43.862Z,11.10
2023-05-22T17:38:12.268Z,11.35
2023-05-22T17:40:45.706Z,11.10
2023-05-22T17:43:14.686Z,12.65
2023-05-22T17:45:44.444Z,12.35
2023-05-22T17:48:15.866Z,12.38
2023-05-22T17:50:44.438Z,12.70
2023-05-22T17:53:13.620Z,12.80
2023-05-22T17:55:41.949Z,13.13
2023-05-22T17:58:10.412Z,13.63
2023-05-22T18:00:39.254Z,12.55
2023-05-22T18:03:08.122Z,14.65
2023-05-22T18:05:37.985Z,14.00
2023-05-22T18:08:06.375Z,13.15
2023-05-22T18:10:34.701Z,13.73
2023-05-22T18:13:03.017Z,13.75
2023-05-22T18:15:32.847Z,14.07
2023-05-22T18:18:01.792Z,14.10
2023-05-22T18:20:30.140Z,13.68
2023-05-22T18:22:59.942Z,14.48
2023-05-22T18:25:28.282Z,15.55
2023-05-22T18:27:56.620Z,13.57
2023-05-22T18:30:25.248Z,15.35
2023-05-22T18:32:53.806Z,14.50
2023-05-22T18:35:22.259Z,14.25
2023-05-22T18:37:50.669Z,15.70
2023-05-22T18:40:20.332Z,14.63
2023-05-22T18:42:48.695Z,14.47
2023-05-22T18:45:17.109Z,15.30
2023-05-22T18:47:45.486Z,15.10
2023-05-22T18:50:14.092Z,15.50
2023-05-22T18:52:42.388Z,15.63
2023-05-22T18:55:12.275Z,15.98
2023-05-22T18:57:42.006Z,16.13
2023-05-22T19:00:11.856Z,15.67
2023-05-22T19:02:40.172Z,16.93
2023-05-22T19:05:09.654Z,16.17
2023-05-22T19:07:38.061Z,16.13
2023-05-22T19:10:08.455Z,17.60
2023-05-22T19:12:36.934Z,16.13
2023-05-22T19:15:08.247Z,15.25
2023-05-22T19:17:36.601Z,18.27
2023-05-22T19:20:07.596Z,18.83
2023-05-22T19:22:36.209Z,18.40
2023-05-22T19:25:04.810Z,19.50
2023-05-22T19:27:33.131Z,20.05
2023-05-22T19:30:01.493Z,21.40
2023-05-22T19:32:31.151Z,19.15
2023-05-22T19:34:59.451Z,18.67
2023-05-22T19:37:27.804Z,18.95
2023-05-22T19:39:56.145Z,18.58
2023-05-22T19:42:24.535Z,18.38
2023-05-22T19:44:52.874Z,20.70
2023-05-22T19:47:21.166Z,18.73
2023-05-22T19:49:50.904Z,20.17
2023-05-22T19:52:19.208Z,19.93
2023-05-22T19:54:47.536Z,19.65
2023-05-22T19:57:15.916Z,21.80
2023-05-22T19:59:44.205Z,20.48
2023-05-22T20:02:13.093Z,21.45
2023-05-22T20:04:43.061Z,21.05
2023-05-22T20:07:13.566Z,21.52
2023-05-22T20:09:41.951Z,21.92
2023-05-22T20:12:10.728Z,21.27
2023-05-22T20:14:39.074Z,22.35
2023-05-22T20:17:07.913Z,22.80
2023-05-22T20:19:36.472Z,21.75
2023-05-22T20:22:06.090Z,21.45
2023-05-22T20:24:37.156Z,20.52
2023-05-22T20:27:07.038Z,19.77
2023-05-22T20:29:35.453Z,18.80
2023-05-22T20:32:03.953Z,19.70
2023-05-22T20:34:32.299Z,19.33
2023-05-22T20:37:00.626Z,19.55
2023-05-22T20:39:29.417Z,18.02
2023-05-22T20:42:02.491Z,17.52
2023-05-22T20:44:31.724Z,19.02
2023-05-22T20:47:00.851Z,17.38
2023-05-22T20:49:29.979Z,17.10
2023-05-22T20:51:59.996Z,17.42
2023-05-22T20:54:28.829Z,16.13
2023-05-22T20:56:58.517Z,16.45
2023-05-22T20:59:28.609Z,14.97
2023-05-22T21:01:57.788Z,16.50
2023-05-22T21:04:27.164Z,15.38
2023-05-22T21:06:55.607Z,17.13
2023-05-22T21:09:23.916Z,16.55
2023-05-22T21:11:52.197Z,15.88
2023-05-22T21:14:21.881Z,16.80
2023-05-22T21:16:50.236Z,15.88
2023-05-22T21:19:18.573Z,17.08
2023-05-22T21:21:46.941Z,16.75
2023-05-22T21:24:15.589Z,16.23
2023-05-22T21:26:43.891Z,15.70
2023-05-22T21:29:12.199Z,15.55
2023-05-22T21:31:41.879Z,15.50
2023-05-22T21:34:10.236Z,16.53
2023-05-22T21:36:38.576Z,14.88
2023-05-22T21:39:06.910Z,15.07
2023-05-22T21:41:35.262Z,15.52
2023-05-22T21:44:03.570Z,14.68
2023-05-22T21:46:31.887Z,13.70
2023-05-22T21:49:03.070Z,14.77
2023-05-22T21:51:31.767Z,12.60
2023-05-22T21:54:00.125Z,13.40
2023-05-22T21:56:28.526Z,13.05
2023-05-22T21:58:56.795Z,12.70
2023-05-22T22:01:25.113Z,12.57
2023-05-22T22:03:53.439Z,13.18
2023-05-22T22:06:23.098Z,11.88
2023-05-22T22:08:53.156Z,12.93
2023-05-22T22:11:21.521Z,12.40
2023-05-22T22:13:49.788Z,12.60
2023-05-22T22:16:18.155Z,12.68
2023-05-22T22:18:48.985Z,11.80
2023-05-22T22:21:17.459Z,13.05
2023-05-22T22:23:47.139Z,12.48
2023-05-22T22:26:16.252Z,13.63
2023-05-22T22:28:44.531Z,12.30
2023-05-22T22:31:12.896Z,14.27
2023-05-22T22:33:41.183Z,14.02
2023-05-22T22:36:09.692Z,15.30
2023-05-22T22:38:38.569Z,16.30
2023-05-22T22:41:09.606Z,15.93
2023-05-22T22:43:38.019Z,16.75
2023-05-22T22:46:06.684Z,16.67
2023-05-22T22:48:35.981Z,16.02
2023-05-22T22:51:05.013Z,17.35
2023-05-22T22:53:33.291Z,16.40
2023-05-22T22:56:02.396Z,16.40
2023-05-22T22:58:32.080Z,15.25
2023-05-22T23:01:00.435Z,15.70
2023-05-22T23:03:28.771Z,16.17
2023-05-22T23:05:57.648Z,16.13
2023-05-22T23:08:25.950Z,16.20
2023-05-22T23:10:54.288Z,16.38
2023-05-22T23:13:22.651Z,17.80
2023-05-22T23:15:52.831Z,18.15
2023-05-22T23:18:22.300Z,19.48
2023-05-22T23:20:51.294Z,18.73
2023-05-22T23:23:19.672Z,18.42
2023-05-22T23:25:47.958Z,19.02
2023-05-22T23:28:16.856Z,17.75
2023-05-22T23:30:45.157Z,18.02
2023-05-22T23:33:14.852Z,17.55
2023-05-22T23:35:43.656Z,17.33
2023-05-22T23:38:11.972Z,17.67
2023-05-22T23:40:40.279Z,17.85
2023-05-22T23:43:08.552Z,19.25
2023-05-22T23:45:36.872Z,16.48
2023-05-22T23:48:05.955Z,17.20
2023-05-22T23:50:36.144Z,15.65
2023-05-22T23:53:04.519Z,16.13
2023-05-22T23:55:32.926Z,15.48
2023-05-22T23:58:01.347Z,16.10
